createdAt,value
2023-05-02T00:00:57.704Z,4.40
2023-05-02T00:01:57.747Z,4.20
2023-05-02T00:02:57.804Z,3.30
2023-05-02T00:03:57.756Z,3.10
2023-05-02T00:04:57.709Z,4.60
2023-05-02T00:05:57.660Z,3.90
2023-05-02T00:06:57.758Z,3.20
2023-05-02T00:07:57.641Z,4.20
2023-05-02T00:08:57.634Z,3.80
2023-05-02T00:09:57.932Z,4.10
2023-05-02T00:10:57.612Z,3.50
2023-05-02T00:11:57.609Z,4.20
2023-05-02T00:12:57.609Z,6.80
2023-05-02T00:13:57.578Z,4.90
2023-05-02T00:14:57.601Z,3.40
2023-05-02T00:15:57.563Z,3.80
2023-05-02T00:16:57.620Z,3.90
2023-05-02T00:17:57.602Z,3.10
2023-05-02T00:18:57.526Z,4.10
2023-05-02T00:19:57.903Z,4.70
2023-05-02T00:20:57.486Z,5.30
2023-05-02T00:21:57.492Z,3.70
2023-05-02T00:22:57.505Z,5.30
2023-05-02T00:23:57.474Z,4.70
2023-05-02T00:24:57.476Z,3.80
2023-05-02T00:25:57.450Z,4.40
2023-05-02T00:26:57.433Z,5.40
2023-05-02T00:27:57.438Z,3.80
2023-05-02T00:28:57.408Z,4.50
2023-05-02T00:29:57.654Z,3.70
2023-05-02T00:30:57.412Z,3.90
2023-05-02T00:31:57.384Z,4.30
2023-05-02T00:32:57.437Z,4.80
2023-05-02T00:33:57.363Z,4.40
2023-05-02T00:34:57.553Z,7.20
2023-05-02T00:35:57.345Z,3.70
2023-05-02T00:36:57.327Z,3.60
2023-05-02T00:37:57.322Z,3.50
2023-05-02T00:38:57.305Z,3.80
2023-05-02T00:39:57.616Z,3.70
2023-05-02T00:40:57.306Z,4.00
2023-05-02T00:41:57.285Z,3.60
2023-05-02T00:42:57.286Z,3.30
2023-05-02T00:43:57.260Z,3.90
2023-05-02T00:44:57.243Z,5.30
2023-05-02T00:45:57.272Z,3.30
2023-05-02T00:46:57.288Z,4.20
2023-05-02T00:47:57.260Z,3.40
2023-05-02T00:48:57.198Z,3.10
2023-05-02T00:49:57.304Z,3.50
2023-05-02T00:50:57.221Z,4.40
2023-05-02T00:51:57.177Z,3.70
2023-05-02T00:52:57.160Z,4.40
2023-05-02T00:53:57.158Z,3.40
2023-05-02T00:54:57.153Z,4.10
2023-05-02T00:55:57.152Z,4.40
2023-05-02T00:56:57.123Z,4.10
2023-05-02T00:57:57.112Z,3.30
2023-05-02T00:58:57.096Z,3.90
2023-05-02T00:59:57.186Z,3.90
2023-05-02T01:00:57.080Z,5.00
2023-05-02T01:01:57.162Z,4.80
2023-05-02T01:02:57.128Z,5.40
2023-05-02T01:03:57.120Z,4.00
2023-05-02T01:04:57.046Z,4.00
2023-05-02T01:05:57.031Z,3.40
2023-05-02T01:06:57.017Z,4.10
2023-05-02T01:07:57.005Z,4.30
2023-05-02T01:08:57.004Z,5.60
2023-05-02T01:09:57.195Z,4.50
2023-05-02T01:10:56.976Z,3.30
2023-05-02T01:11:56.967Z,5.40
2023-05-02T01:12:56.957Z,3.50
2023-05-02T01:13:56.948Z,5.70
2023-05-02T01:14:56.959Z,3.60
2023-05-02T01:15:57.001Z,3.70
2023-05-02T01:16:56.940Z,3.80
2023-05-02T01:17:56.949Z,4.60
2023-05-02T01:18:56.883Z,4.70
2023-05-02T01:19:56.944Z,4.60
2023-05-02T01:20:56.900Z,5.40
2023-05-02T01:21:56.850Z,4.90
2023-05-02T01:22:56.844Z,4.40
2023-05-02T01:23:56.838Z,5.90
2023-05-02T01:24:56.821Z,4.00
2023-05-02T01:25:56.832Z,5.20
2023-05-02T01:26:56.798Z,4.40
2023-05-02T01:27:56.810Z,4.10
2023-05-02T01:28:56.789Z,4.30
2023-05-02T01:29:56.834Z,3.70
2023-05-02T01:30:56.782Z,5.10
2023-05-02T01:31:56.921Z,3.90
2023-05-02T01:32:56.804Z,5.20
2023-05-02T01:33:56.744Z,4.20
2023-05-02T01:34:56.707Z,5.80
2023-05-02T01:35:56.733Z,4.80
2023-05-02T01:36:56.700Z,5.20
2023-05-02T01:37:56.692Z,5.00
2023-05-02T01:38:56.675Z,5.00
2023-05-02T01:39:56.713Z,4.40
2023-05-02T01:40:56.668Z,4.80
2023-05-02T01:41:56.651Z,5.70
2023-05-02T01:42:56.631Z,4.30
2023-05-02T01:43:56.638Z,6.00
2023-05-02T01:44:56.641Z,3.70
2023-05-02T01:45:56.617Z,4.60
2023-05-02T01:46:56.660Z,3.70
2023-05-02T01:47:56.644Z,4.30
2023-05-02T01:48:56.580Z,5.20
2023-05-02T01:49:56.744Z,4.20
2023-05-02T01:50:56.551Z,5.90
2023-05-02T01:51:56.550Z,5.50
2023-05-02T01:52:56.544Z,5.80
2023-05-02T01:53:56.536Z,4.40
2023-05-02T01:54:56.540Z,4.30
2023-05-02T01:55:56.516Z,5.90
2023-05-02T01:56:56.522Z,5.40
2023-05-02T01:57:56.503Z,4.60
2023-05-02T01:58:56.468Z,4.80
2023-05-02T01:59:56.518Z,5.00
2023-05-02T02:00:56.466Z,4.20
2023-05-02T02:01:56.473Z,6.10
2023-05-02T02:02:56.486Z,5.50
2023-05-02T02:03:56.521Z,5.10
2023-05-02T02:04:56.421Z,5.30
2023-05-02T02:05:56.404Z,5.90
2023-05-02T02:06:56.382Z,5.40
2023-05-02T02:07:56.385Z,6.90
2023-05-02T02:08:56.370Z,6.20
2023-05-02T02:09:56.391Z,7.30
2023-05-02T02:10:56.349Z,7.30
2023-05-02T02:11:56.337Z,8.40
2023-05-02T02:12:56.327Z,7.10
2023-05-02T02:13:56.332Z,8.20
2023-05-02T02:14:56.320Z,8.10
2023-05-02T02:15:56.289Z,10.00
2023-05-02T02:16:56.375Z,7.10
2023-05-02T02:17:56.310Z,9.70
2023-05-02T02:18:56.266Z,9.50
2023-05-02T02:19:56.276Z,10.80
2023-05-02T02:20:56.236Z,9.00
2023-05-02T02:21:56.244Z,9.20
2023-05-02T02:22:56.226Z,9.10
2023-05-02T02:23:56.220Z,10.30
2023-05-02T02:24:56.238Z,11.60
2023-05-02T02:25:56.194Z,8.50
2023-05-02T02:26:56.176Z,9.20
2023-05-02T02:27:56.175Z,10.80
2023-05-02T02:28:56.145Z,8.40
2023-05-02T02:29:56.150Z,9.00
2023-05-02T02:30:56.190Z,8.00
2023-05-02T02:31:56.129Z,10.10
2023-05-02T02:32:56.212Z,9.60
2023-05-02T02:33:56.105Z,9.10
2023-05-02T02:34:56.085Z,12.70
2023-05-02T02:35:56.107Z,8.70
2023-05-02T02:36:56.074Z,10.30
2023-05-02T02:37:56.062Z,9.50
2023-05-02T02:38:56.059Z,9.10
2023-05-02T02:39:56.045Z,9.30
2023-05-02T02:40:56.056Z,9.10
2023-05-02T02:41:56.019Z,10.10
2023-05-02T02:42:56.040Z,10.90
2023-05-02T02:43:56.001Z,11.40
2023-05-02T02:44:55.996Z,10.70
2023-05-02T02:45:56.059Z,9.10
2023-05-02T02:46:55.966Z,11.30
2023-05-02T02:47:56.009Z,10.20
2023-05-02T02:48:55.943Z,10.50
2023-05-02T02:49:55.935Z,12.00
2023-05-02T02:50:55.980Z,10.00
2023-05-02T02:51:55.911Z,10.90
2023-05-02T02:52:55.921Z,8.50
2023-05-02T02:53:55.893Z,9.80
2023-05-02T02:54:55.885Z,11.80
2023-05-02T02:55:55.896Z,10.50
2023-05-02T02:56:55.867Z,9.00
2023-05-02T02:57:55.859Z,10.00
2023-05-02T02:58:55.852Z,12.60
2023-05-02T02:59:55.831Z,12.60
2023-05-02T03:00:55.846Z,13.60
2023-05-02T03:01:55.864Z,10.60
2023-05-02T03:02:55.854Z,10.10
2023-05-02T03:03:55.838Z,11.10
2023-05-02T03:04:55.792Z,10.40
2023-05-02T03:05:55.782Z,10.90
2023-05-02T03:06:55.959Z,9.50
2023-05-02T03:07:55.752Z,12.60
2023-05-02T03:08:55.738Z,10.90
2023-05-02T03:09:55.739Z,9.90
2023-05-02T03:10:55.741Z,11.70
2023-05-02T03:11:55.701Z,12.60
2023-05-02T03:12:55.981Z,12.80
2023-05-02T03:13:55.687Z,11.80
2023-05-02T03:14:55.696Z,12.20
2023-05-02T03:15:55.794Z,13.10
2023-05-02T03:16:55.669Z,11.00
2023-05-02T03:17:55.701Z,11.90
2023-05-02T03:18:55.627Z,14.30
2023-05-02T03:19:55.617Z,12.40
2023-05-02T03:20:55.648Z,13.00
2023-05-02T03:21:55.543Z,10.60
2023-05-02T03:22:55.591Z,11.50
2023-05-02T03:23:55.584Z,10.70
2023-05-02T03:24:55.611Z,12.50
2023-05-02T03:25:55.517Z,10.90
2023-05-02T03:26:55.503Z,10.60
2023-05-02T03:27:55.555Z,13.90
2023-05-02T03:28:55.549Z,16.80
2023-05-02T03:29:55.512Z,12.60
2023-05-02T03:30:55.498Z,10.80
2023-05-02T03:31:55.521Z,11.70
2023-05-02T03:32:55.538Z,10.60
2023-05-02T03:33:55.421Z,13.50
2023-05-02T03:34:55.424Z,11.30
2023-05-02T03:35:55.415Z,10.90
2023-05-02T03:36:55.404Z,11.40
2023-05-02T03:37:55.372Z,13.10
2023-05-02T03:38:55.368Z,13.90
2023-05-02T03:39:55.357Z,12.70
2023-05-02T03:40:55.366Z,12.70
2023-05-02T03:41:55.351Z,12.90
2023-05-02T03:42:55.346Z,13.20
2023-05-02T03:43:55.314Z,12.70
2023-05-02T03:44:55.311Z,12.70
2023-05-02T03:45:55.303Z,11.30
2023-05-02T03:46:55.337Z,12.10
2023-05-02T03:47:55.428Z,11.80
2023-05-02T03:48:55.272Z,13.80
2023-05-02T03:49:55.255Z,13.50
2023-05-02T03:50:55.293Z,12.60
2023-05-02T03:51:55.255Z,11.40
2023-05-02T03:52:55.223Z,12.50
2023-05-02T03:53:55.222Z,15.40
2023-05-02T03:54:55.240Z,10.80
2023-05-02T03:55:55.207Z,11.60
2023-05-02T03:56:55.180Z,11.90
2023-05-02T03:57:55.176Z,13.50
2023-05-02T03:58:55.164Z,11.60
2023-05-02T03:59:55.148Z,11.90
2023-05-02T04:00:55.170Z,11.20
2023-05-02T04:01:55.149Z,14.00
2023-05-02T04:02:55.163Z,14.40
2023-05-02T04:03:55.112Z,13.30
2023-05-02T04:04:55.094Z,14.30
2023-05-02T04:05:55.113Z,13.40
2023-05-02T04:06:55.205Z,13.80
2023-05-02T04:07:55.071Z,11.60
2023-05-02T04:08:55.065Z,13.60
2023-05-02T04:09:55.061Z,15.50
2023-05-02T04:10:55.057Z,12.70
2023-05-02T04:11:55.026Z,15.00
2023-05-02T04:12:55.010Z,14.70
2023-05-02T04:13:54.996Z,13.60
2023-05-02T04:14:55.004Z,12.90
2023-05-02T04:15:55.044Z,17.10
2023-05-02T04:16:55.117Z,16.10
2023-05-02T04:17:55.015Z,14.60
2023-05-02T04:18:54.953Z,15.40
2023-05-02T04:19:54.947Z,15.50
2023-05-02T04:20:54.938Z,16.00
2023-05-02T04:21:54.936Z,17.40
2023-05-02T04:22:54.916Z,19.20
2023-05-02T04:23:54.892Z,15.50
2023-05-02T04:24:54.895Z,18.20
2023-05-02T04:25:54.886Z,17.70
2023-05-02T04:26:54.894Z,15.40
2023-05-02T04:27:54.856Z,19.20
2023-05-02T04:28:54.847Z,18.30
2023-05-02T04:29:54.844Z,17.90
2023-05-02T04:30:54.873Z,15.50
2023-05-02T04:31:54.820Z,18.50
2023-05-02T04:32:54.850Z,16.30
2023-05-02T04:33:54.788Z,19.70
2023-05-02T04:34:54.826Z,20.00
2023-05-02T04:35:54.766Z,15.90
2023-05-02T04:36:54.792Z,18.50
2023-05-02T04:37:54.741Z,19.20
2023-05-02T04:38:54.732Z,19.40
2023-05-02T04:39:54.720Z,22.90
2023-05-02T04:40:54.717Z,20.10
2023-05-02T04:41:54.732Z,20.10
2023-05-02T04:42:54.711Z,22.60
2023-05-02T04:43:54.718Z,20.20
2023-05-02T04:44:54.691Z,22.00
2023-05-02T04:45:54.691Z,23.60
2023-05-02T04:46:54.966Z,27.60
2023-05-02T04:47:54.713Z,21.70
2023-05-02T04:48:54.638Z,20.20
2023-05-02T04:49:54.616Z,25.00
2023-05-02T04:50:54.610Z,22.00
2023-05-02T04:51:54.640Z,20.80
2023-05-02T04:52:54.590Z,21.70
2023-05-02T04:53:54.569Z,23.20
2023-05-02T04:54:54.566Z,20.50
2023-05-02T04:55:54.554Z,20.30
2023-05-02T04:56:54.573Z,20.50
2023-05-02T04:57:54.532Z,23.20
2023-05-02T04:58:54.533Z,22.10
2023-05-02T04:59:54.518Z,23.50
2023-05-02T05:00:54.506Z,24.40
2023-05-02T05:01:54.608Z,24.60
2023-05-02T05:02:54.628Z,19.70
2023-05-02T05:03:54.538Z,23.40
2023-05-02T05:04:54.500Z,27.50
2023-05-02T05:05:54.483Z,23.70
2023-05-02T05:06:54.616Z,22.70
2023-05-02T05:07:54.430Z,25.90
2023-05-02T05:08:54.424Z,23.50
2023-05-02T05:09:54.427Z,26.30
2023-05-02T05:10:54.417Z,22.50
2023-05-02T05:11:54.420Z,26.50
2023-05-02T05:12:54.372Z,22.70
2023-05-02T05:13:54.374Z,23.60
2023-05-02T05:14:54.375Z,23.00
2023-05-02T05:15:54.374Z,25.10
2023-05-02T05:16:54.521Z,24.20
2023-05-02T05:17:54.407Z,24.90
2023-05-02T05:18:54.332Z,22.10
2023-05-02T05:19:54.330Z,19.00
2023-05-02T05:20:54.309Z,21.90
2023-05-02T05:21:54.305Z,19.60
2023-05-02T05:22:54.281Z,22.30
2023-05-02T05:23:54.268Z,20.90
2023-05-02T05:24:54.269Z,21.30
2023-05-02T05:25:54.249Z,20.00
2023-05-02T05:26:54.251Z,21.30
2023-05-02T05:27:54.216Z,20.20
2023-05-02T05:28:54.282Z,21.50
2023-05-02T05:29:54.216Z,18.60
2023-05-02T05:30:54.192Z,18.10
2023-05-02T05:31:54.264Z,23.80
2023-05-02T05:32:54.217Z,19.50
2023-05-02T05:33:54.174Z,19.90
2023-05-02T05:34:54.168Z,18.00
2023-05-02T05:35:54.137Z,21.30
2023-05-02T05:36:54.150Z,19.00
2023-05-02T05:37:54.123Z,18.40
2023-05-02T05:38:54.124Z,17.70
2023-05-02T05:39:54.123Z,16.50
2023-05-02T05:40:54.090Z,18.40
2023-05-02T05:41:54.102Z,16.20
2023-05-02T05:42:54.081Z,15.70
2023-05-02T05:43:54.065Z,16.20
2023-05-02T05:44:54.064Z,13.60
2023-05-02T05:45:54.048Z,16.40
2023-05-02T05:46:54.124Z,13.60
2023-05-02T05:47:54.143Z,14.80
2023-05-02T05:48:54.022Z,15.70
2023-05-02T05:49:53.996Z,15.00
2023-05-02T05:50:53.990Z,13.90
2023-05-02T05:51:53.990Z,12.50
2023-05-02T05:52:53.965Z,16.30
2023-05-02T05:53:54.065Z,14.80
2023-05-02T05:54:53.945Z,16.60
2023-05-02T05:55:53.931Z,14.30
2023-05-02T05:56:53.942Z,19.20
2023-05-02T05:57:53.915Z,14.70
2023-05-02T05:58:53.899Z,21.20
2023-05-02T05:59:53.898Z,14.20
2023-05-02T06:00:53.910Z,15.90
2023-05-02T06:01:53.880Z,14.40
2023-05-02T06:02:54.190Z,13.90
2023-05-02T06:03:53.949Z,17.20
2023-05-02T06:04:53.902Z,18.60
2023-05-02T06:05:53.828Z,15.70
2023-05-02T06:06:54.118Z,12.00
2023-05-02T06:07:53.821Z,16.20
2023-05-02T06:08:53.810Z,15.40
2023-05-02T06:09:53.847Z,11.10
2023-05-02T06:10:53.781Z,14.00
2023-05-02T06:11:53.952Z,13.70
2023-05-02T06:12:53.760Z,14.50
2023-05-02T06:13:53.747Z,13.20
2023-05-02T06:14:53.753Z,14.80
2023-05-02T06:15:53.732Z,14.50
2023-05-02T06:16:53.717Z,13.20
2023-05-02T06:17:53.735Z,11.70
2023-05-02T06:18:53.741Z,13.90
2023-05-02T06:19:53.676Z,13.80
2023-05-02T06:20:53.673Z,13.00
2023-05-02T06:21:53.661Z,13.80
2023-05-02T06:22:53.666Z,13.50
2023-05-02T06:23:53.638Z,12.60
2023-05-02T06:24:53.640Z,11.70
2023-05-02T06:25:53.619Z,12.50
2023-05-02T06:26:53.624Z,13.00
2023-05-02T06:27:53.616Z,12.70
2023-05-02T06:28:53.590Z,14.50
2023-05-02T06:29:53.572Z,14.20
2023-05-02T06:30:53.565Z,9.50
2023-05-02T06:31:53.645Z,12.10
2023-05-02T06:32:53.625Z,9.60
2023-05-02T06:33:53.520Z,8.70
2023-05-02T06:34:53.533Z,7.60
2023-05-02T06:35:53.507Z,11.90
2023-05-02T06:36:53.506Z,9.90
2023-05-02T06:37:53.510Z,9.50
2023-05-02T06:38:53.483Z,8.50
2023-05-02T06:39:53.472Z,11.20
2023-05-02T06:40:53.468Z,11.30
2023-05-02T06:41:53.451Z,13.70
2023-05-02T06:42:53.466Z,13.20
2023-05-02T06:43:53.454Z,12.80
2023-05-02T06:44:53.433Z,13.10
2023-05-02T06:45:53.405Z,13.00
2023-05-02T06:46:53.430Z,16.40
2023-05-02T06:47:53.421Z,13.00
2023-05-02T06:48:53.387Z,14.80
2023-05-02T06:49:53.363Z,16.10
2023-05-02T06:50:53.364Z,13.50
2023-05-02T06:51:53.340Z,16.40
2023-05-02T06:52:53.361Z,15.00
2023-05-02T06:53:53.318Z,12.90
2023-05-02T06:54:53.328Z,15.30
2023-05-02T06:55:53.311Z,12.90
2023-05-02T06:56:53.293Z,15.40
2023-05-02T06:57:53.291Z,13.80
2023-05-02T06:58:53.272Z,13.90
2023-05-02T06:59:53.251Z,14.20
2023-05-02T07:00:53.336Z,20.50
2023-05-02T07:01:53.235Z,13.20
2023-05-02T07:02:53.323Z,14.00
2023-05-02T07:03:53.248Z,15.80
2023-05-02T07:04:53.212Z,15.70
2023-05-02T07:05:53.198Z,15.30
2023-05-02T07:06:53.273Z,15.40
2023-05-02T07:07:53.825Z,13.80
2023-05-02T07:08:53.179Z,14.10
2023-05-02T07:09:53.160Z,13.00
2023-05-02T07:10:53.135Z,14.60
2023-05-02T07:11:53.151Z,15.20
2023-05-02T07:12:53.720Z,14.40
2023-05-02T07:13:53.140Z,14.20
2023-05-02T07:14:53.103Z,14.20
2023-05-02T07:15:53.119Z,16.50
2023-05-02T07:16:53.118Z,13.30
2023-05-02T07:17:53.128Z,12.60
2023-05-02T07:18:53.062Z,13.00
2023-05-02T07:19:53.073Z,11.60
2023-05-02T07:20:53.049Z,12.00
2023-05-02T07:21:53.038Z,10.00
2023-05-02T07:22:53.036Z,11.30
2023-05-02T07:23:53.008Z,11.60
2023-05-02T07:24:52.998Z,8.10
2023-05-02T07:25:52.991Z,9.40
2023-05-02T07:26:52.980Z,7.70
2023-05-02T07:27:52.983Z,7.20
2023-05-02T07:28:52.960Z,9.50
2023-05-02T07:29:52.944Z,8.80
2023-05-02T07:30:52.935Z,8.80
2023-05-02T07:31:52.966Z,12.70
2023-05-02T07:32:52.951Z,8.80
2023-05-02T07:33:52.910Z,8.40
2023-05-02T07:34:52.932Z,9.80
2023-05-02T07:35:52.884Z,7.70
2023-05-02T07:36:52.862Z,8.50
2023-05-02T07:37:52.887Z,8.00
2023-05-02T07:38:52.863Z,7.40
2023-05-02T07:39:52.851Z,7.80
2023-05-02T07:40:52.829Z,9.00
2023-05-02T07:41:52.820Z,9.00
2023-05-02T07:42:52.834Z,7.70
2023-05-02T07:43:52.840Z,9.20
2023-05-02T07:44:52.788Z,8.70
2023-05-02T07:45:52.822Z,9.80
2023-05-02T07:46:52.798Z,8.00
2023-05-02T07:47:52.881Z,7.20
2023-05-02T07:48:52.746Z,8.90
2023-05-02T07:49:52.743Z,7.60
2023-05-02T07:50:52.753Z,6.80
2023-05-02T07:51:52.736Z,7.00
2023-05-02T07:52:52.711Z,8.40
2023-05-02T07:53:52.702Z,6.90
2023-05-02T07:54:52.694Z,7.80
2023-05-02T07:55:52.769Z,8.20
2023-05-02T07:56:52.675Z,7.30
2023-05-02T07:57:52.691Z,9.30
2023-05-02T07:58:52.691Z,9.00
2023-05-02T07:59:52.778Z,9.20
2023-05-02T08:00:52.611Z,8.20
2023-05-02T08:01:52.629Z,7.80
2023-05-02T08:02:52.709Z,7.70
2023-05-02T08:03:52.875Z,9.50
2023-05-02T08:04:52.668Z,8.80
2023-05-02T08:05:52.580Z,7.40
2023-05-02T08:06:52.722Z,6.80
2023-05-02T08:07:52.564Z,8.00
2023-05-02T08:08:52.533Z,6.30
2023-05-02T08:09:52.531Z,7.50
2023-05-02T08:10:52.532Z,6.70
2023-05-02T08:11:52.629Z,6.80
2023-05-02T08:12:52.527Z,10.00
2023-05-02T08:13:52.498Z,8.70
2023-05-02T08:14:52.491Z,6.50
2023-05-02T08:15:52.536Z,6.80
2023-05-02T08:16:52.479Z,7.70
2023-05-02T08:17:52.506Z,6.90
2023-05-02T08:18:52.425Z,7.90
2023-05-02T08:19:52.440Z,7.60
2023-05-02T08:20:52.412Z,7.20
2023-05-02T08:21:52.401Z,6.70
2023-05-02T08:22:52.407Z,8.00
2023-05-02T08:23:52.380Z,8.60
2023-05-02T08:24:52.429Z,11.20
2023-05-02T08:25:52.379Z,5.80
2023-05-02T08:26:52.341Z,7.70
2023-05-02T08:27:52.386Z,5.80
2023-05-02T08:28:52.330Z,7.10
2023-05-02T08:29:52.333Z,6.90
2023-05-02T08:30:52.300Z,4.50
2023-05-02T08:31:52.346Z,7.20
2023-05-02T08:32:52.355Z,5.90
2023-05-02T08:33:52.278Z,5.90
2023-05-02T08:34:52.266Z,5.10
2023-05-02T08:35:52.263Z,5.70
2023-05-02T08:36:52.235Z,5.20
2023-05-02T08:37:52.247Z,5.70
2023-05-02T08:38:52.223Z,5.10
2023-05-02T08:39:52.220Z,6.20
2023-05-02T08:40:52.207Z,5.90
2023-05-02T08:41:52.196Z,7.60
2023-05-02T08:42:52.194Z,6.10
2023-05-02T08:43:52.380Z,8.50
2023-05-02T08:44:52.148Z,7.20
2023-05-02T08:45:52.144Z,6.80
2023-05-02T08:46:52.152Z,5.40
2023-05-02T08:47:52.185Z,6.50
2023-05-02T08:48:52.109Z,4.70
2023-05-02T08:49:52.125Z,5.90
2023-05-02T08:50:52.125Z,4.40
2023-05-02T08:51:52.087Z,5.40
2023-05-02T08:52:52.080Z,3.90
2023-05-02T08:53:52.060Z,4.50
2023-05-02T08:54:52.047Z,4.70
2023-05-02T08:55:52.050Z,4.70
2023-05-02T08:56:52.034Z,3.80
2023-05-02T08:57:52.046Z,4.50
2023-05-02T08:58:52.032Z,3.30
2023-05-02T08:59:52.006Z,4.10
2023-05-02T09:00:52.735Z,3.20
2023-05-02T09:01:52.021Z,3.50
2023-05-02T09:02:52.194Z,2.90
2023-05-02T09:03:51.978Z,3.90
2023-05-02T09:04:51.959Z,3.00
2023-05-02T09:05:51.938Z,2.70
2023-05-02T09:06:52.109Z,2.10
2023-05-02T09:07:51.966Z,3.00
2023-05-02T09:08:51.896Z,2.90
2023-05-02T09:09:51.906Z,1.90
2023-05-02T09:10:51.888Z,1.50
2023-05-02T09:11:51.884Z,3.60
2023-05-02T09:12:51.882Z,1.80
2023-05-02T09:13:51.906Z,1.80
2023-05-02T09:14:52.010Z,1.50
2023-05-02T09:15:51.830Z,1.50
2023-05-02T09:16:51.897Z,2.20
2023-05-02T09:17:51.866Z,1.40
2023-05-02T09:18:51.798Z,1.60
2023-05-02T09:19:51.789Z,2.90
2023-05-02T09:20:51.771Z,2.80
2023-05-02T09:21:51.762Z,2.40
2023-05-02T09:22:51.793Z,1.70
2023-05-02T09:23:51.769Z,2.00
2023-05-02T09:24:51.733Z,2.40
2023-05-02T09:25:51.733Z,2.70
2023-05-02T09:26:51.707Z,1.80
2023-05-02T09:27:51.737Z,1.70
2023-05-02T09:28:51.715Z,2.10
2023-05-02T09:29:51.694Z,2.60
2023-05-02T09:30:51.793Z,2.40
2023-05-02T09:31:56.307Z,2.60
2023-05-02T09:32:51.709Z,2.90
2023-05-02T09:33:51.652Z,2.80
2023-05-02T09:34:51.625Z,2.50
2023-05-02T09:35:51.651Z,2.60
2023-05-02T09:36:51.608Z,2.60
2023-05-02T09:37:51.624Z,2.40
2023-05-02T09:38:51.583Z,2.60
2023-05-02T09:39:51.583Z,3.10
2023-05-02T09:40:51.589Z,2.30
2023-05-02T09:41:51.743Z,2.30
2023-05-02T09:42:51.545Z,4.60
2023-05-02T09:43:51.616Z,3.90
2023-05-02T09:44:51.525Z,3.10
2023-05-02T09:45:51.644Z,1.80
2023-05-02T09:46:51.600Z,2.20
2023-05-02T09:47:51.513Z,3.70
2023-05-02T09:48:51.476Z,2.10
2023-05-02T09:49:51.469Z,3.30
2023-05-02T09:50:51.564Z,1.80
2023-05-02T09:51:51.549Z,3.00
2023-05-02T09:52:51.558Z,3.30
2023-05-02T09:53:51.426Z,2.30
2023-05-02T09:54:51.406Z,4.40
2023-05-02T09:55:51.408Z,3.60
2023-05-02T09:56:51.410Z,2.80
2023-05-02T09:57:51.390Z,2.90
2023-05-02T09:58:51.379Z,3.10
2023-05-02T09:59:51.434Z,2.60
2023-05-02T10:00:51.616Z,2.80
2023-05-02T10:01:51.452Z,2.70
2023-05-02T10:02:51.367Z,3.00
2023-05-02T10:03:51.429Z,3.00
2023-05-02T10:04:51.322Z,3.00
2023-05-02T10:05:51.298Z,3.90
2023-05-02T10:06:51.500Z,3.30
2023-05-02T10:07:51.312Z,3.00
2023-05-02T10:08:51.261Z,2.20
2023-05-02T10:09:51.306Z,2.40
2023-05-02T10:10:51.239Z,2.40
2023-05-02T10:11:51.258Z,2.80
2023-05-02T10:12:51.284Z,2.70
2023-05-02T10:13:51.342Z,2.40
2023-05-02T10:14:51.269Z,3.90
2023-05-02T10:15:51.237Z,2.70
2023-05-02T10:16:51.197Z,2.60
2023-05-02T10:17:51.508Z,3.30
2023-05-02T10:18:51.156Z,3.00
2023-05-02T10:19:51.169Z,3.50
2023-05-02T10:20:51.152Z,3.40
2023-05-02T10:21:51.201Z,2.70
2023-05-02T10:22:51.170Z,3.00
2023-05-02T10:23:51.182Z,3.80
2023-05-02T10:24:51.140Z,3.20
2023-05-02T10:25:51.096Z,5.10
2023-05-02T10:26:51.077Z,2.90
2023-05-02T10:27:51.103Z,4.30
2023-05-02T10:28:51.056Z,3.40
2023-05-02T10:29:51.052Z,2.60
2023-05-02T10:30:51.097Z,2.30
2023-05-02T10:31:51.263Z,2.10
2023-05-02T10:32:51.109Z,3.00
2023-05-02T10:33:51.007Z,4.20
2023-05-02T10:34:50.992Z,4.80
2023-05-02T10:35:50.985Z,4.30
2023-05-02T10:36:50.960Z,2.40
2023-05-02T10:37:51.005Z,4.40
2023-05-02T10:38:50.975Z,4.00
2023-05-02T10:39:50.952Z,2.50
2023-05-02T10:40:50.933Z,3.60
2023-05-02T10:41:50.934Z,3.30
2023-05-02T10:42:50.926Z,3.10
2023-05-02T10:43:50.915Z,2.30
2023-05-02T10:44:50.895Z,4.30
2023-05-02T10:45:50.895Z,4.50
2023-05-02T10:46:50.927Z,3.90
2023-05-02T10:47:50.913Z,4.80
2023-05-02T10:48:50.898Z,3.20
2023-05-02T10:49:50.831Z,3.50
2023-05-02T10:50:50.828Z,2.80
2023-05-02T10:51:50.820Z,3.50
2023-05-02T10:52:50.823Z,3.20
2023-05-02T10:53:50.804Z,4.40
2023-05-02T10:54:50.782Z,2.70
2023-05-02T10:55:50.777Z,3.30
2023-05-02T10:56:50.758Z,2.40
2023-05-02T10:57:50.764Z,2.60
2023-05-02T10:58:50.750Z,3.50
2023-05-02T10:59:50.737Z,3.10
2023-05-02T11:00:50.768Z,3.10
2023-05-02T11:01:50.749Z,3.20
2023-05-02T11:02:50.752Z,2.90
2023-05-02T11:03:50.696Z,2.50
2023-05-02T11:04:50.674Z,2.50
2023-05-02T11:05:50.681Z,2.40
2023-05-02T11:06:50.698Z,3.40
2023-05-02T11:07:50.686Z,2.20
2023-05-02T11:08:50.633Z,3.00
2023-05-02T11:09:50.632Z,2.70
2023-05-02T11:10:50.622Z,4.30
2023-05-02T11:11:50.619Z,4.00
2023-05-02T11:12:50.604Z,3.80
2023-05-02T11:13:50.584Z,3.10
2023-05-02T11:14:50.564Z,3.60
2023-05-02T11:15:50.562Z,3.40
2023-05-02T11:16:50.602Z,4.30
2023-05-02T11:17:50.582Z,3.50
2023-05-02T11:18:50.532Z,3.00
2023-05-02T11:19:50.516Z,3.60
2023-05-02T11:20:50.508Z,3.80
2023-05-02T11:21:50.504Z,3.30
2023-05-02T11:22:50.575Z,2.80
2023-05-02T11:23:50.467Z,4.30
2023-05-02T11:24:50.461Z,4.20
2023-05-02T11:25:50.469Z,5.20
2023-05-02T11:26:50.444Z,5.80
2023-05-02T11:27:50.476Z,4.30
2023-05-02T11:28:50.426Z,9.40
2023-05-02T11:29:50.401Z,4.80
2023-05-02T11:30:50.453Z,5.70
2023-05-02T11:31:50.414Z,6.40
2023-05-02T11:32:50.447Z,8.40
2023-05-02T11:33:50.373Z,4.80
2023-05-02T11:34:50.358Z,5.80
2023-05-02T11:35:50.418Z,6.90
2023-05-02T11:36:50.352Z,7.60
2023-05-02T11:37:50.793Z,4.80
2023-05-02T11:38:50.331Z,3.50
2023-05-02T11:39:50.297Z,5.50
2023-05-02T11:40:50.298Z,5.30
2023-05-02T11:41:50.279Z,4.90
2023-05-02T11:42:50.301Z,5.20
2023-05-02T11:43:50.270Z,5.80
2023-05-02T11:44:50.258Z,4.80
2023-05-02T11:45:50.297Z,4.90
2023-05-02T11:46:50.285Z,7.20
2023-05-02T11:47:50.301Z,4.60
2023-05-02T11:48:50.216Z,6.90
2023-05-02T11:49:50.218Z,5.60
2023-05-02T11:50:50.808Z,5.80
2023-05-02T11:51:50.184Z,4.80
2023-05-02T11:52:50.200Z,8.30
2023-05-02T11:53:50.168Z,9.10
2023-05-02T11:54:50.161Z,5.40
2023-05-02T11:55:50.142Z,5.20
2023-05-02T11:56:50.139Z,5.30
2023-05-02T11:57:50.139Z,7.80
2023-05-02T11:58:50.126Z,5.90
2023-05-02T11:59:50.145Z,5.90
2023-05-02T12:00:50.098Z,7.00
2023-05-02T12:01:50.081Z,4.50
2023-05-02T12:02:50.257Z,4.90
2023-05-02T12:03:50.248Z,4.70
2023-05-02T12:04:50.052Z,5.20
2023-05-02T12:05:50.268Z,4.60
2023-05-02T12:06:50.088Z,4.70
2023-05-02T12:07:50.111Z,5.30
2023-05-02T12:08:50.035Z,5.30
2023-05-02T12:09:49.996Z,9.40
2023-05-02T12:10:49.998Z,5.20
2023-05-02T12:11:49.990Z,6.10
2023-05-02T12:12:49.996Z,5.30
2023-05-02T12:13:50.475Z,7.20
2023-05-02T12:14:49.949Z,8.40
2023-05-02T12:15:49.953Z,8.30
2023-05-02T12:16:49.966Z,7.10
2023-05-02T12:17:49.994Z,5.30
2023-05-02T12:18:49.913Z,5.70
2023-05-02T12:19:49.895Z,8.10
2023-05-02T12:20:49.891Z,4.70
2023-05-02T12:21:49.872Z,7.20
2023-05-02T12:22:50.161Z,7.90
2023-05-02T12:23:49.862Z,7.70
2023-05-02T12:24:49.863Z,5.10
2023-05-02T12:25:49.857Z,7.70
2023-05-02T12:26:51.132Z,5.30
2023-05-02T12:27:49.824Z,7.50
2023-05-02T12:28:49.820Z,7.10
2023-05-02T12:29:49.790Z,3.70
2023-05-02T12:30:49.782Z,6.40
2023-05-02T12:31:49.844Z,9.30
2023-05-02T12:32:49.809Z,4.90
2023-05-02T12:33:49.753Z,5.90
2023-05-02T12:34:49.774Z,4.80
2023-05-02T12:35:49.734Z,7.90
2023-05-02T12:36:49.717Z,6.10
2023-05-02T12:37:50.306Z,6.60
2023-05-02T12:38:49.716Z,6.10
2023-05-02T12:39:49.685Z,7.40
2023-05-02T12:40:49.682Z,8.20
2023-05-02T12:41:49.676Z,6.20
2023-05-02T12:42:49.670Z,8.50
2023-05-02T12:43:49.654Z,7.00
2023-05-02T12:44:49.643Z,5.00
2023-05-02T12:45:49.655Z,11.70
2023-05-02T12:46:49.666Z,7.00
2023-05-02T12:47:49.732Z,5.50
2023-05-02T12:48:49.597Z,8.90
2023-05-02T12:49:49.587Z,10.50
2023-05-02T12:50:49.596Z,8.50
2023-05-02T12:51:49.561Z,8.10
2023-05-02T12:52:49.576Z,8.60
2023-05-02T12:53:49.540Z,6.60
2023-05-02T12:54:49.561Z,8.80
2023-05-02T12:55:49.529Z,7.60
2023-05-02T12:56:49.565Z,7.30
2023-05-02T12:57:49.522Z,8.80
2023-05-02T12:58:49.498Z,8.50
2023-05-02T12:59:49.477Z,5.40
2023-05-02T13:00:49.498Z,7.50
2023-05-02T13:01:49.453Z,7.40
2023-05-02T13:02:49.510Z,10.90
2023-05-02T13:03:49.512Z,7.10
2023-05-02T13:04:49.432Z,5.70
2023-05-02T13:05:49.431Z,6.00
2023-05-02T13:06:49.491Z,9.30
2023-05-02T13:07:49.429Z,8.80
2023-05-02T13:08:49.410Z,7.90
2023-05-02T13:09:49.398Z,9.00